sensor_id;sensor_type;location;lat;lon;timestamp;temperature;humidity
15930;DHT22;8064;51.142;4.780;2023-03-21T00:01:11;11.30;99.90
15930;DHT22;8064;51.142;4.780;2023-03-21T00:03:37;11.20;99.90
15930;DHT22;8064;51.142;4.780;2023-03-21T00:06:06;11.20;99.90
15930;DHT22;8064;51.142;4.780;2023-03-21T00:08:32;11.20;99.90
15930;DHT22;8064;51.142;4.780;2023-03-21T00:11:00;11.30;99.90
15930;DHT22;8064;51.142;4.780;2023-03-21T00:13:27;11.30;99.90
15930;DHT22;8064;51.142;4.780;2023-03-21T00:15:58;11.30;99.90
15930;DHT22;8064;51.142;4.780;2023-03-21T00:18:27;11.30;99.90
15930;DHT22;8064;51.142;4.780;2023-03-21T00:20:56;11.30;99.90
15930;DHT22;8064;51.142;4.780;2023-03-21T00:23:24;11.30;99.90
15930;DHT22;8064;51.142;4.780;2023-03-21T00:25:50;11.30;99.90
15930;DHT22;8064;51.142;4.780;2023-03-21T00:28:16;11.30;99.90
15930;DHT22;8064;51.142;4.780;2023-03-21T00:30:42;11.30;99.90
15930;DHT22;8064;51.142;4.780;2023-03-21T00:33:08;11.30;99.90
15930;DHT22;8064;51.142;4.780;2023-03-21T00:35:33;11.30;99.90
15930;DHT22;8064;51.142;4.780;2023-03-21T00:37:59;11.30;99.90
15930;DHT22;8064;51.142;4.780;2023-03-21T00:40:25;11.30;99.90
15930;DHT22;8064;51.142;4.780;2023-03-21T00:42:51;11.30;99.90
15930;DHT22;8064;51.142;4.780;2023-03-21T00:45:17;11.30;99.90
15930;DHT22;8064;51.142;4.780;2023-03-21T00:47:44;11.30;99.90
15930;DHT22;8064;51.142;4.780;2023-03-21T00:50:10;11.30;99.90
15930;DHT22;8064;51.142;4.780;2023-03-21T00:52:37;11.30;99.90
15930;DHT22;8064;51.142;4.780;2023-03-21T00:55:04;11.30;99.90
15930;DHT22;8064;51.142;4.780;2023-03-21T00:57:30;11.30;99.90
15930;DHT22;8064;51.142;4.780;2023-03-21T00:59:56;11.40;99.90
15930;DHT22;8064;51.142;4.780;2023-03-21T01:02:24;11.30;99.90
15930;DHT22;8064;51.142;4.780;2023-03-21T01:04:52;11.30;99.90
15930;DHT22;8064;51.142;4.780;2023-03-21T01:07:17;11.30;99.90
15930;DHT22;8064;51.142;4.780;2023-03-21T01:09:43;11.30;99.90
15930;DHT22;8064;51.142;4.780;2023-03-21T01:12:09;11.30;99.90
15930;DHT22;8064;51.142;4.780;2023-03-21T01:14:35;11.30;99.90
15930;DHT22;8064;51.142;4.780;2023-03-21T01:17:01;11.30;99.90
15930;DHT22;8064;51.142;4.780;2023-03-21T01:19:27;11.30;99.90
15930;DHT22;8064;51.142;4.780;2023-03-21T01:21:54;11.20;99.90
15930;DHT22;8064;51.142;4.780;2023-03-21T01:24:20;11.20;99.90
15930;DHT22;8064;51.142;4.780;2023-03-21T01:26:46;11.30;99.90
15930;DHT22;8064;51.142;4.780;2023-03-21T01:29:12;11.20;99.90
15930;DHT22;8064;51.142;4.780;2023-03-21T01:31:37;11.20;99.90
15930;DHT22;8064;51.142;4.780;2023-03-21T01:34:03;11.20;99.90
15930;DHT22;8064;51.142;4.780;2023-03-21T01:36:29;11.20;99.90
15930;DHT22;8064;51.142;4.780;2023-03-21T01:38:55;11.20;99.90
15930;DHT22;8064;51.142;4.780;2023-03-21T01:41:40;11.20;99.90
15930;DHT22;8064;51.142;4.780;2023-03-21T01:44:06;11.20;99.90
15930;DHT22;8064;51.142;4.780;2023-03-21T01:46:47;11.20;99.90
15930;DHT22;8064;51.142;4.780;2023-03-21T01:51:47;11.20;99.90
15930;DHT22;8064;51.142;4.780;2023-03-21T01:54:20;11.10;99.90
15930;DHT22;8064;51.142;4.780;2023-03-21T01:56:51;11.10;99.90
15930;DHT22;8064;51.142;4.780;2023-03-21T01:59:25;11.10;99.90
15930;DHT22;8064;51.142;4.780;2023-03-21T02:01:53;11.10;99.90
15930;DHT22;8064;51.142;4.780;2023-03-21T02:04:20;11.10;99.90
15930;DHT22;8064;51.142;4.780;2023-03-21T02:06:58;11.10;99.90
15930;DHT22;8064;51.142;4.780;2023-03-21T02:09:27;11.10;99.90
15930;DHT22;8064;51.142;4.780;2023-03-21T02:11:56;11.10;99.90
15930;DHT22;8064;51.142;4.780;2023-03-21T02:14:22;11.10;99.90
15930;DHT22;8064;51.142;4.780;2023-03-21T02:25:12;11.10;99.90
15930;DHT22;8064;51.142;4.780;2023-03-21T02:27:50;11.00;99.90
15930;DHT22;8064;51.142;4.780;2023-03-21T02:38:13;11.10;99.90
15930;DHT22;8064;51.142;4.780;2023-03-21T02:46:37;11.00;99.90
15930;DHT22;8064;51.142;4.780;2023-03-21T02:49:14;11.10;99.90
15930;DHT22;8064;51.142;4.780;2023-03-21T02:51:42;11.00;99.90
15930;DHT22;8064;51.142;4.780;2023-03-21T02:54:14;11.10;99.90
15930;DHT22;8064;51.142;4.780;2023-03-21T02:56:41;11.10;99.90
15930;DHT22;8064;51.142;4.780;2023-03-21T02:59:08;11.10;99.90
15930;DHT22;8064;51.142;4.780;2023-03-21T03:01:34;11.10;99.90
15930;DHT22;8064;51.142;4.780;2023-03-21T03:04:00;11.10;99.90
15930;DHT22;8064;51.142;4.780;2023-03-21T03:06:45;11.10;99.90
15930;DHT22;8064;51.142;4.780;2023-03-21T03:09:24;11.10;99.90
15930;DHT22;8064;51.142;4.780;2023-03-21T03:12:03;11.10;99.90
15930;DHT22;8064;51.142;4.780;2023-03-21T03:14:35;11.10;99.90
15930;DHT22;8064;51.142;4.780;2023-03-21T03:20:36;11.10;99.90
15930;DHT22;8064;51.142;4.780;2023-03-21T03:26:04;11.20;99.90
15930;DHT22;8064;51.142;4.780;2023-03-21T03:28:36;11.20;99.90
15930;DHT22;8064;51.142;4.780;2023-03-21T03:31:03;11.20;99.90
15930;DHT22;8064;51.142;4.780;2023-03-21T03:33:32;11.20;99.90
15930;DHT22;8064;51.142;4.780;2023-03-21T03:36:00;11.20;99.90
15930;DHT22;8064;51.142;4.780;2023-03-21T03:38:28;11.20;99.90
15930;DHT22;8064;51.142;4.780;2023-03-21T03:40:58;11.20;99.90
15930;DHT22;8064;51.142;4.780;2023-03-21T03:43:31;11.20;99.90
15930;DHT22;8064;51.142;4.780;2023-03-21T03:46:05;11.20;99.90
15930;DHT22;8064;51.142;4.780;2023-03-21T03:48:42;11.30;99.90
15930;DHT22;8064;51.142;4.780;2023-03-21T03:51:16;11.30;99.90
15930;DHT22;8064;51.142;4.780;2023-03-21T03:53:49;11.30;99.90
15930;DHT22;8064;51.142;4.780;2023-03-21T03:56:16;11.30;99.90
15930;DHT22;8064;51.142;4.780;2023-03-21T03:58:42;11.30;99.90
15930;DHT22;8064;51.142;4.780;2023-03-21T04:01:08;11.30;99.90
15930;DHT22;8064;51.142;4.780;2023-03-21T04:03:36;11.30;99.90
15930;DHT22;8064;51.142;4.780;2023-03-21T04:06:04;11.30;99.90
15930;DHT22;8064;51.142;4.780;2023-03-21T04:08:30;11.30;99.90
15930;DHT22;8064;51.142;4.780;2023-03-21T04:10:56;11.30;99.90
15930;DHT22;8064;51.142;4.780;2023-03-21T04:13:22;11.30;99.90
15930;DHT22;8064;51.142;4.780;2023-03-21T04:15:48;11.30;99.90
15930;DHT22;8064;51.142;4.780;2023-03-21T04:18:13;11.40;99.90
15930;DHT22;8064;51.142;4.780;2023-03-21T04:20:39;11.40;99.90
15930;DHT22;8064;51.142;4.780;2023-03-21T04:23:06;11.40;99.90
15930;DHT22;8064;51.142;4.780;2023-03-21T04:25:33;11.40;99.90
15930;DHT22;8064;51.142;4.780;2023-03-21T04:27:59;11.40;99.90
15930;DHT22;8064;51.142;4.780;2023-03-21T04:30:25;11.40;99.90
15930;DHT22;8064;51.142;4.780;2023-03-21T04:32:51;11.40;99.90
15930;DHT22;8064;51.142;4.780;2023-03-21T04:35:35;11.40;99.90
15930;DHT22;8064;51.142;4.780;2023-03-21T04:38:02;11.40;99.90
15930;DHT22;8064;51.142;4.780;2023-03-21T04:40:28;11.50;99.90
15930;DHT22;8064;51.142;4.780;2023-03-21T04:42:54;11.50;99.90
15930;DHT22;8064;51.142;4.780;2023-03-21T04:45:19;11.50;99.90
15930;DHT22;8064;51.142;4.780;2023-03-21T04:47:45;11.50;99.90
15930;DHT22;8064;51.142;4.780;2023-03-21T04:50:11;11.50;99.90
15930;DHT22;8064;51.142;4.780;2023-03-21T04:52:38;11.50;99.90
15930;DHT22;8064;51.142;4.780;2023-03-21T04:55:04;11.50;99.90
15930;DHT22;8064;51.142;4.780;2023-03-21T04:57:30;11.50;99.90
15930;DHT22;8064;51.142;4.780;2023-03-21T04:59:55;11.50;99.90
15930;DHT22;8064;51.142;4.780;2023-03-21T05:02:21;11.50;99.90
15930;DHT22;8064;51.142;4.780;2023-03-21T05:04:47;11.50;99.90
15930;DHT22;8064;51.142;4.780;2023-03-21T05:07:13;11.50;99.90
15930;DHT22;8064;51.142;4.780;2023-03-21T05:09:38;11.50;99.90
15930;DHT22;8064;51.142;4.780;2023-03-21T05:12:04;11.50;99.90
15930;DHT22;8064;51.142;4.780;2023-03-21T05:14:30;11.50;99.90
15930;DHT22;8064;51.142;4.780;2023-03-21T05:16:56;11.60;99.90
15930;DHT22;8064;51.142;4.780;2023-03-21T05:19:25;11.60;99.90
15930;DHT22;8064;51.142;4.780;2023-03-21T05:22:00;11.60;99.90
15930;DHT22;8064;51.142;4.780;2023-03-21T05:24:29;11.60;99.90
15930;DHT22;8064;51.142;4.780;2023-03-21T05:26:55;11.60;99.90
15930;DHT22;8064;51.142;4.780;2023-03-21T05:29:27;11.60;99.90
15930;DHT22;8064;51.142;4.780;2023-03-21T05:31:54;11.60;99.90
15930;DHT22;8064;51.142;4.780;2023-03-21T05:34:20;11.60;99.90
15930;DHT22;8064;51.142;4.780;2023-03-21T05:36:46;11.60;99.90
15930;DHT22;8064;51.142;4.780;2023-03-21T05:39:12;11.60;99.90
15930;DHT22;8064;51.142;4.780;2023-03-21T05:41:37;11.60;99.90
15930;DHT22;8064;51.142;4.780;2023-03-21T05:44:03;11.60;99.90
15930;DHT22;8064;51.142;4.780;2023-03-21T05:46:29;11.60;99.90
15930;DHT22;8064;51.142;4.780;2023-03-21T05:48:54;11.60;99.90
15930;DHT22;8064;51.142;4.780;2023-03-21T05:51:20;11.60;99.90
15930;DHT22;8064;51.142;4.780;2023-03-21T05:53:46;11.60;99.90
15930;DHT22;8064;51.142;4.780;2023-03-21T05:56:13;11.60;99.90
15930;DHT22;8064;51.142;4.780;2023-03-21T05:58:38;11.60;99.90
15930;DHT22;8064;51.142;4.780;2023-03-21T06:01:05;11.60;99.90
15930;DHT22;8064;51.142;4.780;2023-03-21T06:03:31;11.60;99.90
15930;DHT22;8064;51.142;4.780;2023-03-21T06:05:56;11.60;99.90
15930;DHT22;8064;51.142;4.780;2023-03-21T06:08:22;11.60;99.90
15930;DHT22;8064;51.142;4.780;2023-03-21T06:10:48;11.60;99.90
15930;DHT22;8064;51.142;4.780;2023-03-21T06:13:14;11.60;99.90
15930;DHT22;8064;51.142;4.780;2023-03-21T06:15:40;11.60;99.90
15930;DHT22;8064;51.142;4.780;2023-03-21T06:18:06;11.60;99.90
15930;DHT22;8064;51.142;4.780;2023-03-21T06:20:32;11.60;99.90
15930;DHT22;8064;51.142;4.780;2023-03-21T06:22:58;11.60;99.90
15930;DHT22;8064;51.142;4.780;2023-03-21T06:25:24;11.70;99.90
15930;DHT22;8064;51.142;4.780;2023-03-21T06:27:50;11.70;99.90
15930;DHT22;8064;51.142;4.780;2023-03-21T06:30:16;11.70;99.90
15930;DHT22;8064;51.142;4.780;2023-03-21T06:32:42;11.70;99.90
15930;DHT22;8064;51.142;4.780;2023-03-21T06:35:08;11.70;99.90
15930;DHT22;8064;51.142;4.780;2023-03-21T06:37:34;11.70;99.90
15930;DHT22;8064;51.142;4.780;2023-03-21T06:40:00;11.70;99.90
15930;DHT22;8064;51.142;4.780;2023-03-21T06:42:26;11.70;99.90
15930;DHT22;8064;51.142;4.780;2023-03-21T06:44:53;11.70;99.90
15930;DHT22;8064;51.142;4.780;2023-03-21T06:47:19;11.70;99.90
15930;DHT22;8064;51.142;4.780;2023-03-21T06:49:45;11.70;99.90
15930;DHT22;8064;51.142;4.780;2023-03-21T06:52:11;11.60;99.90
15930;DHT22;8064;51.142;4.780;2023-03-21T06:54:36;11.60;99.90
15930;DHT22;8064;51.142;4.780;2023-03-21T06:57:02;11.60;99.90
15930;DHT22;8064;51.142;4.780;2023-03-21T06:59:28;11.60;99.90
15930;DHT22;8064;51.142;4.780;2023-03-21T07:01:54;11.60;99.90
15930;DHT22;8064;51.142;4.780;2023-03-21T07:04:19;11.60;99.90
15930;DHT22;8064;51.142;4.780;2023-03-21T07:06:45;11.70;99.90
15930;DHT22;8064;51.142;4.780;2023-03-21T07:09:14;11.60;99.90
15930;DHT22;8064;51.142;4.780;2023-03-21T07:11:42;11.60;99.90
15930;DHT22;8064;51.142;4.780;2023-03-21T07:14:08;11.60;99.90
15930;DHT22;8064;51.142;4.780;2023-03-21T07:16:33;11.60;99.90
15930;DHT22;8064;51.142;4.780;2023-03-21T07:18:59;11.70;99.90
15930;DHT22;8064;51.142;4.780;2023-03-21T07:21:25;11.60;99.90
15930;DHT22;8064;51.142;4.780;2023-03-21T07:23:51;11.60;99.90
15930;DHT22;8064;51.142;4.780;2023-03-21T07:26:17;11.60;99.90
15930;DHT22;8064;51.142;4.780;2023-03-21T07:28:43;11.60;99.90
15930;DHT22;8064;51.142;4.780;2023-03-21T07:31:21;11.50;99.90
15930;DHT22;8064;51.142;4.780;2023-03-21T07:33:50;11.50;99.90
15930;DHT22;8064;51.142;4.780;2023-03-21T07:36:16;11.50;99.90
15930;DHT22;8064;51.142;4.780;2023-03-21T07:38:43;11.50;99.90
15930;DHT22;8064;51.142;4.780;2023-03-21T07:41:10;11.50;99.90
15930;DHT22;8064;51.142;4.780;2023-03-21T07:43:35;11.50;99.90
15930;DHT22;8064;51.142;4.780;2023-03-21T07:46:02;11.50;99.90
15930;DHT22;8064;51.142;4.780;2023-03-21T07:48:28;11.50;99.90
15930;DHT22;8064;51.142;4.780;2023-03-21T07:50:54;11.50;99.90
15930;DHT22;8064;51.142;4.780;2023-03-21T07:53:20;11.50;99.90
15930;DHT22;8064;51.142;4.780;2023-03-21T07:56:04;11.50;99.90
15930;DHT22;8064;51.142;4.780;2023-03-21T07:58:30;11.50;99.90
15930;DHT22;8064;51.142;4.780;2023-03-21T08:00:59;11.50;99.90
15930;DHT22;8064;51.142;4.780;2023-03-21T08:03:26;11.60;99.90
15930;DHT22;8064;51.142;4.780;2023-03-21T08:05:54;11.60;99.90
15930;DHT22;8064;51.142;4.780;2023-03-21T08:08:20;11.60;99.90
15930;DHT22;8064;51.142;4.780;2023-03-21T08:10:45;11.70;99.90
15930;DHT22;8064;51.142;4.780;2023-03-21T08:13:12;11.70;99.90
15930;DHT22;8064;51.142;4.780;2023-03-21T08:15:38;11.80;99.90
15930;DHT22;8064;51.142;4.780;2023-03-21T08:18:07;11.90;99.90
15930;DHT22;8064;51.142;4.780;2023-03-21T08:20:33;12.00;99.90
15930;DHT22;8064;51.142;4.780;2023-03-21T08:22:58;12.00;99.90
15930;DHT22;8064;51.142;4.780;2023-03-21T08:25:24;12.10;99.90
15930;DHT22;8064;51.142;4.780;2023-03-21T08:27:50;12.10;99.90
15930;DHT22;8064;51.142;4.780;2023-03-21T08:30:19;12.10;99.90
15930;DHT22;8064;51.142;4.780;2023-03-21T08:32:45;12.20;99.90
15930;DHT22;8064;51.142;4.780;2023-03-21T08:35:12;12.20;99.90
15930;DHT22;8064;51.142;4.780;2023-03-21T08:37:39;12.20;99.90
15930;DHT22;8064;51.142;4.780;2023-03-21T08:40:07;12.20;99.90
15930;DHT22;8064;51.142;4.780;2023-03-21T08:42:36;12.20;99.90
15930;DHT22;8064;51.142;4.780;2023-03-21T08:45:02;12.20;99.90
15930;DHT22;8064;51.142;4.780;2023-03-21T08:47:30;12.20;99.90
15930;DHT22;8064;51.142;4.780;2023-03-21T08:49:56;12.20;99.90
15930;DHT22;8064;51.142;4.780;2023-03-21T08:52:22;12.20;99.90
15930;DHT22;8064;51.142;4.780;2023-03-21T08:54:48;12.20;99.90
15930;DHT22;8064;51.142;4.780;2023-03-21T08:57:14;12.20;99.90
15930;DHT22;8064;51.142;4.780;2023-03-21T08:59:41;12.20;99.90
15930;DHT22;8064;51.142;4.780;2023-03-21T09:02:07;12.20;99.90
15930;DHT22;8064;51.142;4.780;2023-03-21T09:04:32;12.30;99.90
15930;DHT22;8064;51.142;4.780;2023-03-21T09:06:59;12.30;99.90
15930;DHT22;8064;51.142;4.780;2023-03-21T09:09:29;12.30;99.90
15930;DHT22;8064;51.142;4.780;2023-03-21T09:11:55;12.40;99.90
15930;DHT22;8064;51.142;4.780;2023-03-21T09:14:21;12.40;99.90
15930;DHT22;8064;51.142;4.780;2023-03-21T09:16:47;12.50;99.90
15930;DHT22;8064;51.142;4.780;2023-03-21T09:19:12;12.50;99.90
15930;DHT22;8064;51.142;4.780;2023-03-21T09:21:38;12.60;99.90
15930;DHT22;8064;51.142;4.780;2023-03-21T09:24:05;12.60;99.90
15930;DHT22;8064;51.142;4.780;2023-03-21T09:26:31;12.60;99.90
15930;DHT22;8064;51.142;4.780;2023-03-21T09:28:58;12.70;99.90
15930;DHT22;8064;51.142;4.780;2023-03-21T09:31:25;12.70;99.90
15930;DHT22;8064;51.142;4.780;2023-03-21T09:33:53;12.80;99.90
15930;DHT22;8064;51.142;4.780;2023-03-21T09:36:22;12.80;99.90
15930;DHT22;8064;51.142;4.780;2023-03-21T09:38:52;12.80;99.90
15930;DHT22;8064;51.142;4.780;2023-03-21T09:41:52;12.90;99.90
15930;DHT22;8064;51.142;4.780;2023-03-21T09:44:38;12.90;99.90
15930;DHT22;8064;51.142;4.780;2023-03-21T09:47:23;13.00;99.90
15930;DHT22;8064;51.142;4.780;2023-03-21T09:49:58;13.00;99.90
15930;DHT22;8064;51.142;4.780;2023-03-21T09:52:33;13.00;99.90
15930;DHT22;8064;51.142;4.780;2023-03-21T09:55:03;13.00;99.90
15930;DHT22;8064;51.142;4.780;2023-03-21T09:57:45;13.10;99.90
15930;DHT22;8064;51.142;4.780;2023-03-21T10:00:19;13.10;99.90
15930;DHT22;8064;51.142;4.780;2023-03-21T10:02:50;13.10;99.90
15930;DHT22;8064;51.142;4.780;2023-03-21T10:05:19;13.10;99.90
15930;DHT22;8064;51.142;4.780;2023-03-21T10:07:51;13.10;99.90
15930;DHT22;8064;51.142;4.780;2023-03-21T10:10:23;13.10;99.90
15930;DHT22;8064;51.142;4.780;2023-03-21T10:12:52;13.20;99.90
15930;DHT22;8064;51.142;4.780;2023-03-21T10:15:21;13.20;99.90
15930;DHT22;8064;51.142;4.780;2023-03-21T10:17:52;13.30;99.90
15930;DHT22;8064;51.142;4.780;2023-03-21T10:20:22;13.40;99.90
15930;DHT22;8064;51.142;4.780;2023-03-21T10:22:50;13.50;99.90
15930;DHT22;8064;51.142;4.780;2023-03-21T10:25:19;13.60;99.90
15930;DHT22;8064;51.142;4.780;2023-03-21T10:27:46;13.60;99.90
15930;DHT22;8064;51.142;4.780;2023-03-21T10:30:29;13.70;99.90
15930;DHT22;8064;51.142;4.780;2023-03-21T10:32:59;13.70;99.90
15930;DHT22;8064;51.142;4.780;2023-03-21T10:35:30;13.80;99.90
15930;DHT22;8064;51.142;4.780;2023-03-21T10:37:59;13.80;99.90
15930;DHT22;8064;51.142;4.780;2023-03-21T10:40:26;13.80;99.90
15930;DHT22;8064;51.142;4.780;2023-03-21T10:42:55;13.80;99.90
15930;DHT22;8064;51.142;4.780;2023-03-21T10:45:22;13.80;99.90
15930;DHT22;8064;51.142;4.780;2023-03-21T10:47:49;13.80;99.90
15930;DHT22;8064;51.142;4.780;2023-03-21T10:50:18;13.90;99.90
15930;DHT22;8064;51.142;4.780;2023-03-21T10:52:49;14.00;99.90
15930;DHT22;8064;51.142;4.780;2023-03-21T10:55:32;14.00;99.90
15930;DHT22;8064;51.142;4.780;2023-03-21T10:58:01;14.20;99.90
15930;DHT22;8064;51.142;4.780;2023-03-21T11:00:34;14.20;99.90
15930;DHT22;8064;51.142;4.780;2023-03-21T11:03:01;14.30;99.90
15930;DHT22;8064;51.142;4.780;2023-03-21T11:05:44;14.40;99.90
15930;DHT22;8064;51.142;4.780;2023-03-21T11:08:14;14.40;99.90
15930;DHT22;8064;51.142;4.780;2023-03-21T11:11:00;14.50;99.90
15930;DHT22;8064;51.142;4.780;2023-03-21T11:13:33;14.70;99.90
15930;DHT22;8064;51.142;4.780;2023-03-21T11:16:07;14.80;99.90
15930;DHT22;8064;51.142;4.780;2023-03-21T11:18:40;14.90;99.90
15930;DHT22;8064;51.142;4.780;2023-03-21T11:21:09;15.00;99.90
15930;DHT22;8064;51.142;4.780;2023-03-21T11:23:41;15.00;99.90
15930;DHT22;8064;51.142;4.780;2023-03-21T11:26:15;15.10;99.90
15930;DHT22;8064;51.142;4.780;2023-03-21T11:28:41;15.20;99.90
15930;DHT22;8064;51.142;4.780;2023-03-21T11:31:09;15.40;99.90
15930;DHT22;8064;51.142;4.780;2023-03-21T11:33:41;15.60;99.90
15930;DHT22;8064;51.142;4.780;2023-03-21T11:36:31;15.80;99.90
15930;DHT22;8064;51.142;4.780;2023-03-21T11:41:42;16.10;99.80
15930;DHT22;8064;51.142;4.780;2023-03-21T11:44:26;16.30;99.80
15930;DHT22;8064;51.142;4.780;2023-03-21T11:46:52;16.50;99.10
15930;DHT22;8064;51.142;4.780;2023-03-21T11:49:19;16.60;98.70
15930;DHT22;8064;51.142;4.780;2023-03-21T11:54:23;16.70;98.20
15930;DHT22;8064;51.142;4.780;2023-03-21T11:56:52;16.70;98.00
15930;DHT22;8064;51.142;4.780;2023-03-21T12:04:46;16.20;96.80
15930;DHT22;8064;51.142;4.780;2023-03-21T12:16:04;16.40;96.40
15930;DHT22;8064;51.142;4.780;2023-03-21T12:18:58;16.40;96.10
15930;DHT22;8064;51.142;4.780;2023-03-21T12:24:50;16.30;95.70
15930;DHT22;8064;51.142;4.780;2023-03-21T12:27:38;16.50;95.90
15930;DHT22;8064;51.142;4.780;2023-03-21T12:30:27;16.70;95.80
15930;DHT22;8064;51.142;4.780;2023-03-21T12:35:49;16.90;95.20
15930;DHT22;8064;51.142;4.780;2023-03-21T12:38:33;16.80;95.40
15930;DHT22;8064;51.142;4.780;2023-03-21T12:41:09;16.80;95.40
15930;DHT22;8064;51.142;4.780;2023-03-21T12:43:55;16.80;95.40
15930;DHT22;8064;51.142;4.780;2023-03-21T12:46:46;17.00;95.10
15930;DHT22;8064;51.142;4.780;2023-03-21T12:49:33;17.00;94.60
15930;DHT22;8064;51.142;4.780;2023-03-21T12:52:05;16.90;94.50
15930;DHT22;8064;51.142;4.780;2023-03-21T12:54:38;16.70;94.80
15930;DHT22;8064;51.142;4.780;2023-03-21T12:57:13;16.60;94.80
15930;DHT22;8064;51.142;4.780;2023-03-21T13:00:04;16.40;94.80
15930;DHT22;8064;51.142;4.780;2023-03-21T13:02:48;16.30;95.10
15930;DHT22;8064;51.142;4.780;2023-03-21T13:08:17;16.10;95.40
15930;DHT22;8064;51.142;4.780;2023-03-21T13:10:44;16.00;95.60
15930;DHT22;8064;51.142;4.780;2023-03-21T13:16:00;15.90;95.70
15930;DHT22;8064;51.142;4.780;2023-03-21T13:29:50;16.20;96.20
15930;DHT22;8064;51.142;4.780;2023-03-21T13:35:15;16.20;96.10
15930;DHT22;8064;51.142;4.780;2023-03-21T13:37:48;16.20;96.20
15930;DHT22;8064;51.142;4.780;2023-03-21T13:40:37;16.20;96.00
15930;DHT22;8064;51.142;4.780;2023-03-21T13:43:03;16.10;96.10
15930;DHT22;8064;51.142;4.780;2023-03-21T13:45:33;16.10;96.30
15930;DHT22;8064;51.142;4.780;2023-03-21T13:48:27;16.10;96.40
15930;DHT22;8064;51.142;4.780;2023-03-21T13:51:12;16.10;96.40
15930;DHT22;8064;51.142;4.780;2023-03-21T13:53:39;16.10;96.40
15930;DHT22;8064;51.142;4.780;2023-03-21T13:58:36;16.10;96.30
15930;DHT22;8064;51.142;4.780;2023-03-21T14:04:17;15.90;96.40
15930;DHT22;8064;51.142;4.780;2023-03-21T14:09:32;15.80;96.30
15930;DHT22;8064;51.142;4.780;2023-03-21T14:12:00;15.70;96.40
15930;DHT22;8064;51.142;4.780;2023-03-21T14:14:44;15.60;96.50
15930;DHT22;8064;51.142;4.780;2023-03-21T14:17:13;15.60;96.70
15930;DHT22;8064;51.142;4.780;2023-03-21T14:19:40;15.60;96.80
15930;DHT22;8064;51.142;4.780;2023-03-21T14:22:38;15.60;96.80
15930;DHT22;8064;51.142;4.780;2023-03-21T14:25:10;15.60;96.80
15930;DHT22;8064;51.142;4.780;2023-03-21T14:27:37;15.60;96.80
15930;DHT22;8064;51.142;4.780;2023-03-21T14:30:09;15.60;96.70
15930;DHT22;8064;51.142;4.780;2023-03-21T14:32:36;15.60;96.80
15930;DHT22;8064;51.142;4.780;2023-03-21T14:35:02;15.50;97.00
15930;DHT22;8064;51.142;4.780;2023-03-21T14:37:32;15.60;97.10
15930;DHT22;8064;51.142;4.780;2023-03-21T14:40:04;15.60;97.20
15930;DHT22;8064;51.142;4.780;2023-03-21T14:42:35;15.60;97.20
15930;DHT22;8064;51.142;4.780;2023-03-21T14:47:58;15.70;97.10
15930;DHT22;8064;51.142;4.780;2023-03-21T14:53:34;15.50;97.20
15930;DHT22;8064;51.142;4.780;2023-03-21T14:58:47;15.40;97.50
15930;DHT22;8064;51.142;4.780;2023-03-21T15:01:16;15.30;97.70
15930;DHT22;8064;51.142;4.780;2023-03-21T15:03:45;15.20;97.80
15930;DHT22;8064;51.142;4.780;2023-03-21T15:06:13;15.10;97.90
15930;DHT22;8064;51.142;4.780;2023-03-21T15:08:38;15.10;98.10
15930;DHT22;8064;51.142;4.780;2023-03-21T15:11:10;15.00;98.30
15930;DHT22;8064;51.142;4.780;2023-03-21T15:16:23;15.00;98.60
15930;DHT22;8064;51.142;4.780;2023-03-21T15:18:49;15.00;98.70
15930;DHT22;8064;51.142;4.780;2023-03-21T15:21:20;15.00;98.80
15930;DHT22;8064;51.142;4.780;2023-03-21T15:23:49;15.00;98.90
15930;DHT22;8064;51.142;4.780;2023-03-21T15:26:20;15.00;99.00
15930;DHT22;8064;51.142;4.780;2023-03-21T15:28:49;15.00;99.10
15930;DHT22;8064;51.142;4.780;2023-03-21T15:31:19;15.00;99.20
15930;DHT22;8064;51.142;4.780;2023-03-21T15:33:47;15.00;99.30
15930;DHT22;8064;51.142;4.780;2023-03-21T15:36:35;15.00;99.50
15930;DHT22;8064;51.142;4.780;2023-03-21T15:39:06;15.00;99.70
15930;DHT22;8064;51.142;4.780;2023-03-21T15:41:33;15.00;99.70
15930;DHT22;8064;51.142;4.780;2023-03-21T15:46:46;14.90;99.90
15930;DHT22;8064;51.142;4.780;2023-03-21T15:51:42;14.90;99.90
15930;DHT22;8064;51.142;4.780;2023-03-21T15:54:14;14.80;99.90
15930;DHT22;8064;51.142;4.780;2023-03-21T15:56:42;14.80;99.90
15930;DHT22;8064;51.142;4.780;2023-03-21T15:59:14;14.80;99.90
15930;DHT22;8064;51.142;4.780;2023-03-21T16:01:46;14.80;99.90
15930;DHT22;8064;51.142;4.780;2023-03-21T16:04:13;14.70;99.90
15930;DHT22;8064;51.142;4.780;2023-03-21T16:06:51;14.70;99.90
15930;DHT22;8064;51.142;4.780;2023-03-21T16:09:18;14.60;99.90
15930;DHT22;8064;51.142;4.780;2023-03-21T16:11:51;14.60;99.90
15930;DHT22;8064;51.142;4.780;2023-03-21T16:14:17;14.50;99.90
15930;DHT22;8064;51.142;4.780;2023-03-21T16:16:43;14.50;99.90
15930;DHT22;8064;51.142;4.780;2023-03-21T16:19:10;14.40;99.90
15930;DHT22;8064;51.142;4.780;2023-03-21T16:21:37;14.40;99.90
15930;DHT22;8064;51.142;4.780;2023-03-21T16:24:03;14.30;99.90
15930;DHT22;8064;51.142;4.780;2023-03-21T16:26:33;14.30;99.90
15930;DHT22;8064;51.142;4.780;2023-03-21T16:28:59;14.20;99.90
15930;DHT22;8064;51.142;4.780;2023-03-21T16:31:27;14.10;99.90
15930;DHT22;8064;51.142;4.780;2023-03-21T16:33:53;14.10;99.90
15930;DHT22;8064;51.142;4.780;2023-03-21T16:36:34;14.00;99.90
15930;DHT22;8064;51.142;4.780;2023-03-21T16:39:17;14.00;99.90
15930;DHT22;8064;51.142;4.780;2023-03-21T16:41:43;14.00;99.90
15930;DHT22;8064;51.142;4.780;2023-03-21T16:44:09;14.00;99.90
15930;DHT22;8064;51.142;4.780;2023-03-21T16:46:35;14.00;99.90
15930;DHT22;8064;51.142;4.780;2023-03-21T16:49:01;14.00;99.90
15930;DHT22;8064;51.142;4.780;2023-03-21T16:51:44;14.00;99.90
15930;DHT22;8064;51.142;4.780;2023-03-21T16:54:10;14.00;99.90
15930;DHT22;8064;51.142;4.780;2023-03-21T16:56:55;14.00;99.90
15930;DHT22;8064;51.142;4.780;2023-03-21T16:59:23;14.00;99.90
15930;DHT22;8064;51.142;4.780;2023-03-21T17:01:48;14.00;99.90
15930;DHT22;8064;51.142;4.780;2023-03-21T17:04:16;14.10;99.90
15930;DHT22;8064;51.142;4.780;2023-03-21T17:06:45;14.10;99.90
15930;DHT22;8064;51.142;4.780;2023-03-21T17:09:14;14.10;99.90
15930;DHT22;8064;51.142;4.780;2023-03-21T17:11:40;14.10;99.90
15930;DHT22;8064;51.142;4.780;2023-03-21T17:14:07;14.10;99.90
15930;DHT22;8064;51.142;4.780;2023-03-21T17:16:33;14.10;99.90
15930;DHT22;8064;51.142;4.780;2023-03-21T17:18:59;14.10;99.90
15930;DHT22;8064;51.142;4.780;2023-03-21T17:21:27;14.10;99.90
15930;DHT22;8064;51.142;4.780;2023-03-21T17:23:54;14.10;99.90
15930;DHT22;8064;51.142;4.780;2023-03-21T17:26:25;14.10;99.90
15930;DHT22;8064;51.142;4.780;2023-03-21T17:28:51;14.00;99.90
15930;DHT22;8064;51.142;4.780;2023-03-21T17:31:19;14.00;99.90
15930;DHT22;8064;51.142;4.780;2023-03-21T17:33:46;13.90;99.90
15930;DHT22;8064;51.142;4.780;2023-03-21T17:36:15;13.90;99.90
15930;DHT22;8064;51.142;4.780;2023-03-21T17:38:42;13.80;99.90
15930;DHT22;8064;51.142;4.780;2023-03-21T17:41:11;13.80;99.90